Rochester, NY (14602)

1:02 AM EDT on March 25, 2017 (GMT -0400)
South Wedge | | Change Station

Elev 525 ft 43.14 °N, 77.61 °W | Updated 2 seconds ago

Rain
Rain
40.0 °F
Feels Like 40 °F
N
0.0
Wind Variable Wind from SSE

Today
High -- | Low -- °F
--% Chance of Precip.
Yesterday
High -- | Low -- °F
Precip. -- in
Pressure 30.14 in
Visibility 4.0 miles
Clouds Scattered Clouds 900 ft
Mostly Cloudy 1500 ft
Overcast 2900 ft
Windchill 40 °F
Dew Point 36 °F
Humidity 86%
Rainfall 0.00 in
Snow Depth Not available.
7:04 AM 7:29 PM
Waning Crescent, 10% visible
METAR KROC 250454Z 06006KT 4SM RA BR SCT009 BKN015 OVC029 05/03 A3012 RMK AO2 RAB47 SLP204 P0001 T00500033 401610011
Pressure 30.14 in
Visibility 4.0 miles
Clouds Scattered Clouds 900 ft
Mostly Cloudy 1500 ft
Overcast 2900 ft
Windchill 40 °F
Dew Point 36 °F
Humidity 86%
Rainfall 0.00 in
Snow Depth Not available.
7:04 AM 7:29 PM
Waning Crescent, 10% visible
METAR KROC 250454Z 06006KT 4SM RA BR SCT009 BKN015 OVC029 05/03 A3012 RMK AO2 RAB47 SLP204 P0001 T00500033 401610011

Get Severe Weather Alerts

Thanks for signing up!

Be on the lookout for a verification email in your inbox.

You'll start receiving the daily forecast at 8 AM.

×

10-Day Weather Forecast

Almanac

Astronomy

Mar. 25, 2017 Rise Set
Actual Time
Civil Twilight
Nautical Twilight
Astronomical Twilight
Moon
Length of Visible Light
Length of Day
Tomorrow will be .
, % of the Moon is Illuminated

Today's Extremes

State Highs State Lows

Community

WunderPhotos

Upload Photos

1,962,540 photos uploaded!

WunderBlog® & News

Nearby

Air Quality

  Air Quality AQ Index Pollutant
Not available.

Snow Depth

Station Depth Elevation

Earthquake Activity

City Distance Mag. Time & Date
Minimum magnitude displayed is 2.5.

Earthquake Activity

City Distance Mag. Time & Date
Minimum magnitude displayed is 2.5.

Coastal Water Temperatures

Place Temperature

Stations

Nearby Weather Stations

Station Location Temp. Windchill Dew Point Humidity Wind Precip. Elev Updated Type
                   

Watches & Warnings

There are currently no watches in effect.